Terminal Aerodrome Forecast
Issued by NWS Rapid City, SD

Home | Current Version | Previous Version | Text Only | Print | Product List | Glossary Off
Versions: 1 2 3 4 5 6 7 8 9 10 11 12 13 14 15 16 17 18 19 20

000
FTUS43 KUNR 201100 AAA
TAFRAP
TAF AMD
KRAP 201136Z 2012/2112 VRB05KT P6SM SCT025
      TEMPO 2012/2015 1/4SM FG SCT001 BKN009
     FM201800 15008KT P6SM BKN200=

USA.gov is the U.S. government's official web portal to all federal, state and local government web resources and services.